首页
METAR-TAF:

METAR-TAF

机场 :

Manitowoc County Airport

Manitowoc, 威斯康辛州, 美国

纬度: 44-08N, 经度: 087-41W, 海拔: 198米

当前天气观测

该预报发布于1小时和1分钟前的19:56 UTC
风速14节,风向西转西北,有时为20节阵风
温度 21°C
湿度 56%
气压 1014 hPa
能見度: 16.1公里
少量云层高于7500英尺

METAR: KMTW 231956Z AUTO 29014G20KT 10SM FEW075 21/12 A2994 RMK AO2 SLP138 T02110117

时间: 15:57 (20:57 UTC)

预报

该预报发布于1小时和44分钟前的19:13 UTC
预报有效从23日的 19点(UTC)到 24日的 18点(UTC)
风速12节,风向西转西北,有时为18节阵风
能見度: 10公里
散云层高于4000英尺
多云层高于5000英尺
从 23日的 2200点(UTC)
风速7节,风向西
能見度: 10公里
少量云层高于6000英尺
从 24日的 0200点(UTC)
风速4节,风向西
能見度: 10公里
天空无云
从 24日的 1500点(UTC)
风速8节,风向西南
能見度: 10公里
散云层高于3000英尺

TAF: KMTW 231913Z 2319/2418 29012G18KT P6SM SCT040 BKN050 FM232200 27007KT P6SM FEW060 FM240200 26004KT P6SM SKC FM241500 22008KT P6SM SCT030

超过4000个机场的气象观测和天气预报(METAR&TAF报告)。

可查询的气象台以黄色和红色小点在地图上表示。

将鼠标移到小点上方,可查看气象台名称。

然后点击查看天气观测和预报。

如需切换地图:点击带黑十字的绿色按钮放大地图;点击带横线的绿色按钮缩小地图;或者点击绿色箭头查看邻近地区的地图。


METAR-TAF: